createdAt,value
2023-05-12T00:01:39.452Z,100.00
2023-05-12T00:04:07.496Z,100.00
2023-05-12T00:06:35.237Z,100.00
2023-05-12T00:09:02.928Z,100.00
2023-05-12T00:11:30.618Z,100.00
2023-05-12T00:13:59.608Z,100.00
2023-05-12T00:16:28.195Z,100.00
2023-05-12T00:18:56.112Z,100.00
2023-05-12T00:21:24.102Z,100.00
2023-05-12T00:23:51.760Z,100.00
2023-05-12T00:26:19.432Z,100.00
2023-05-12T00:28:47.622Z,100.00
2023-05-12T00:31:17.005Z,100.00
2023-05-12T00:33:44.692Z,100.00
2023-05-12T00:36:12.525Z,100.00
2023-05-12T00:38:41.230Z,100.00
2023-05-12T00:41:09.001Z,100.00
2023-05-12T00:43:37.138Z,100.00
2023-05-12T00:46:07.186Z,100.00
2023-05-12T00:48:36.981Z,100.00
2023-05-12T00:51:06.148Z,100.00
2023-05-12T00:53:47.712Z,100.00
2023-05-12T00:56:19.703Z,100.00
2023-05-12T00:58:47.680Z,100.00
2023-05-12T01:01:15.907Z,100.00
2023-05-12T01:03:45.302Z,100.00
2023-05-12T01:06:16.593Z,100.00
2023-05-12T01:08:44.967Z,100.00
2023-05-12T01:11:12.563Z,100.00
2023-05-12T01:13:41.152Z,100.00
2023-05-12T01:16:10.648Z,100.00
2023-05-12T01:18:39.651Z,100.00
2023-05-12T01:21:09.595Z,100.00
2023-05-12T01:23:40.998Z,100.00
2023-05-12T01:26:10.912Z,100.00
2023-05-12T01:28:41.040Z,100.00
2023-05-12T01:31:09.756Z,100.00
2023-05-12T01:33:37.796Z,100.00
2023-05-12T01:36:06.246Z,100.00
2023-05-12T01:38:33.956Z,100.00
2023-05-12T01:41:02.120Z,100.00
2023-05-12T01:43:31.119Z,100.00
2023-05-12T01:45:58.973Z,100.00
2023-05-12T01:48:26.945Z,100.00
2023-05-12T01:50:54.805Z,100.00
2023-05-12T01:53:22.450Z,100.00
2023-05-12T01:55:50.108Z,100.00
2023-05-12T01:58:19.418Z,100.00
2023-05-12T02:00:48.404Z,100.00
2023-05-12T02:03:16.471Z,100.00
2023-05-12T02:05:44.289Z,100.00
2023-05-12T02:08:12.047Z,100.00
2023-05-12T02:10:39.728Z,100.00
2023-05-12T02:13:07.316Z,100.00
2023-05-12T02:15:35.038Z,100.00
2023-05-12T02:18:04.505Z,100.00
2023-05-12T02:20:32.273Z,100.00
2023-05-12T02:23:00.835Z,100.00
2023-05-12T02:25:28.534Z,100.00
2023-05-12T02:27:56.180Z,100.00
2023-05-12T02:30:23.794Z,100.00
2023-05-12T02:32:51.474Z,100.00
2023-05-12T02:35:21.309Z,100.00
2023-05-12T02:37:49.026Z,100.00
2023-05-12T02:40:17.154Z,100.00
2023-05-12T02:42:45.509Z,100.00
2023-05-12T02:45:13.775Z,100.00
2023-05-12T02:47:41.657Z,100.00
2023-05-12T02:50:10.253Z,100.00
2023-05-12T02:52:39.244Z,100.00
2023-05-12T02:55:07.772Z,100.00
2023-05-12T02:57:35.823Z,100.00
2023-05-12T03:00:05.861Z,100.00
2023-05-12T03:02:34.153Z,100.00
2023-05-12T03:05:02.099Z,100.00
2023-05-12T03:07:30.325Z,100.00
2023-05-12T03:10:00.060Z,100.00
2023-05-12T03:12:29.257Z,100.00
2023-05-12T03:14:56.900Z,100.00
2023-05-12T03:17:24.735Z,100.00
2023-05-12T03:19:52.345Z,100.00
2023-05-12T03:22:20.138Z,100.00
2023-05-12T03:24:47.959Z,100.00
2023-05-12T03:27:16.905Z,100.00
2023-05-12T03:29:44.533Z,100.00
2023-05-12T03:32:12.322Z,100.00
2023-05-12T03:34:40.036Z,100.00
2023-05-12T03:37:07.887Z,100.00
2023-05-12T03:39:35.649Z,100.00
2023-05-12T03:42:03.392Z,100.00
2023-05-12T03:44:32.305Z,100.00
2023-05-12T03:47:00.102Z,100.00
2023-05-12T03:49:27.807Z,100.00
2023-05-12T03:51:55.579Z,100.00
2023-05-12T03:54:23.293Z,100.00
2023-05-12T03:56:50.999Z,100.00
2023-05-12T03:59:18.662Z,100.00
2023-05-12T04:01:47.723Z,100.00
2023-05-12T04:04:15.770Z,100.00
2023-05-12T04:06:43.568Z,100.00
2023-05-12T04:09:13.226Z,100.00
2023-05-12T04:11:40.906Z,100.00
2023-05-12T04:14:08.633Z,100.00
2023-05-12T04:16:36.800Z,100.00
2023-05-12T04:19:05.841Z,100.00
2023-05-12T04:21:33.581Z,100.00
2023-05-12T04:24:01.279Z,100.00
2023-05-12T04:26:28.996Z,100.00
2023-05-12T04:28:56.754Z,100.00
2023-05-12T04:31:24.395Z,100.00
2023-05-12T04:33:52.099Z,100.00
2023-05-12T04:36:21.160Z,100.00
2023-05-12T04:38:49.132Z,100.00
2023-05-12T04:41:17.048Z,100.00
2023-05-12T04:46:15.512Z,100.00
2023-05-12T04:48:43.579Z,100.00
2023-05-12T04:51:11.539Z,100.00
2023-05-12T04:53:40.997Z,100.00
2023-05-12T04:56:08.923Z,100.00
2023-05-12T04:58:36.882Z,100.00
2023-05-12T05:01:05.075Z,100.00
2023-05-12T05:03:33.009Z,100.00
2023-05-12T05:06:00.816Z,100.00
2023-05-12T05:08:28.536Z,100.00
2023-05-12T05:10:57.533Z,100.00
2023-05-12T05:13:25.202Z,100.00
2023-05-12T05:15:53.390Z,100.00
2023-05-12T05:18:24.058Z,100.00
2023-05-12T05:20:57.852Z,100.00
2023-05-12T05:23:26.642Z,100.00
2023-05-12T05:25:54.426Z,100.00
2023-05-12T05:28:23.484Z,100.00
2023-05-12T05:30:51.235Z,100.00
2023-05-12T05:33:18.816Z,100.00
2023-05-12T05:35:48.012Z,100.00
2023-05-12T05:38:15.753Z,100.00
2023-05-12T05:40:53.170Z,100.00
2023-05-12T05:43:23.075Z,100.00
2023-05-12T05:45:51.310Z,100.00
2023-05-12T05:48:19.285Z,100.00
2023-05-12T05:50:47.078Z,100.00
2023-05-12T05:53:14.775Z,100.00
2023-05-12T05:55:42.428Z,100.00
2023-05-12T05:58:10.251Z,100.00
2023-05-12T06:00:39.448Z,100.00
2023-05-12T06:03:07.460Z,100.00
2023-05-12T06:05:35.283Z,100.00
2023-05-12T06:08:02.999Z,100.00
2023-05-12T06:10:30.736Z,100.00
2023-05-12T06:12:58.439Z,100.00
2023-05-12T06:15:26.027Z,100.00
2023-05-12T06:17:55.165Z,100.00
2023-05-12T06:20:23.427Z,100.00
2023-05-12T06:22:51.176Z,100.00
2023-05-12T06:25:19.224Z,100.00
2023-05-12T06:27:47.113Z,100.00
2023-05-12T06:30:16.396Z,100.00
2023-05-12T06:32:44.280Z,100.00
2023-05-12T06:35:13.463Z,100.00
2023-05-12T06:37:41.074Z,100.00
2023-05-12T06:40:09.539Z,100.00
2023-05-12T06:42:37.299Z,100.00
2023-05-12T06:45:05.699Z,100.00
2023-05-12T06:47:33.657Z,100.00
2023-05-12T06:50:01.759Z,100.00
2023-05-12T06:52:30.720Z,100.00
2023-05-12T06:54:58.560Z,100.00
2023-05-12T06:57:26.339Z,100.00
2023-05-12T06:59:54.049Z,100.00
2023-05-12T07:02:21.946Z,100.00
2023-05-12T07:04:49.735Z,100.00
2023-05-12T07:07:17.314Z,100.00
2023-05-12T07:09:46.296Z,100.00
2023-05-12T07:12:13.929Z,100.00
2023-05-12T07:14:41.536Z,100.00
2023-05-12T07:17:09.135Z,100.00
2023-05-12T07:19:37.076Z,100.00
2023-05-12T07:22:05.011Z,100.00
2023-05-12T07:24:32.654Z,100.00
2023-05-12T07:27:02.531Z,100.00
2023-05-12T07:29:30.198Z,100.00
2023-05-12T07:31:57.875Z,100.00
2023-05-12T07:34:25.764Z,100.00
2023-05-12T07:36:53.621Z,100.00
2023-05-12T07:39:23.575Z,100.00
2023-05-12T07:41:53.510Z,100.00
2023-05-12T07:44:22.546Z,100.00
2023-05-12T07:46:50.575Z,100.00
2023-05-12T07:49:18.244Z,100.00
2023-05-12T07:51:45.934Z,100.00
2023-05-12T07:54:13.696Z,100.00
2023-05-12T07:56:41.425Z,100.00
2023-05-12T07:59:09.131Z,100.00
2023-05-12T08:01:38.216Z,100.00
2023-05-12T08:04:06.693Z,100.00
2023-05-12T08:06:34.427Z,100.00
2023-05-12T08:09:02.044Z,100.00
2023-05-12T08:11:29.858Z,100.00
2023-05-12T08:13:57.454Z,100.00
2023-05-12T08:16:25.101Z,100.00
2023-05-12T08:18:54.461Z,100.00
2023-05-12T08:21:22.253Z,100.00
2023-05-12T08:23:49.862Z,100.00
2023-05-12T08:26:17.455Z,100.00
2023-05-12T08:28:45.009Z,100.00
2023-05-12T08:31:13.104Z,100.00
2023-05-12T08:33:40.815Z,100.00
2023-05-12T08:36:09.930Z,100.00
2023-05-12T08:38:37.720Z,100.00
2023-05-12T08:41:13.372Z,100.00
2023-05-12T08:43:45.174Z,100.00
2023-05-12T08:46:12.962Z,100.00
2023-05-12T08:48:41.488Z,100.00
2023-05-12T08:51:12.826Z,100.00
2023-05-12T08:53:42.415Z,100.00
2023-05-12T08:58:43.709Z,100.00
2023-05-12T09:01:14.666Z,100.00
2023-05-12T09:03:44.218Z,100.00
2023-05-12T09:06:14.899Z,100.00
2023-05-12T09:08:42.878Z,100.00
2023-05-12T09:11:13.329Z,100.00
2023-05-12T09:13:49.618Z,100.00
2023-05-12T09:16:20.496Z,100.00
2023-05-12T09:18:51.483Z,100.00
2023-05-12T09:21:20.788Z,100.00
2023-05-12T09:23:59.497Z,100.00
2023-05-12T09:26:28.815Z,100.00
2023-05-12T09:29:06.260Z,100.00
2023-05-12T09:31:34.160Z,100.00
2023-05-12T09:34:02.413Z,99.19
2023-05-12T09:36:35.332Z,99.06
2023-05-12T09:39:05.306Z,100.00
2023-05-12T09:41:36.126Z,100.00
2023-05-12T09:44:04.739Z,100.00
2023-05-12T09:46:32.589Z,97.12
2023-05-12T09:49:01.069Z,97.57
2023-05-12T09:51:29.200Z,92.16
2023-05-12T09:53:58.300Z,89.93
2023-05-12T09:56:28.878Z,90.17
2023-05-12T09:58:57.931Z,89.21
2023-05-12T10:01:26.379Z,90.36
2023-05-12T10:03:55.830Z,90.86
2023-05-12T10:06:28.081Z,83.12
2023-05-12T10:09:05.185Z,67.99
2023-05-12T10:11:36.698Z,67.07
2023-05-12T10:14:06.582Z,64.60
2023-05-12T10:16:34.711Z,66.68
2023-05-12T10:19:04.329Z,65.19
2023-05-12T10:21:32.721Z,65.83
2023-05-12T10:24:05.952Z,70.14
2023-05-12T10:26:34.893Z,69.29
2023-05-12T10:29:03.245Z,68.30
2023-05-12T10:31:33.752Z,59.42
2023-05-12T10:34:03.355Z,57.96
2023-05-12T10:36:31.458Z,59.18
2023-05-12T10:39:07.071Z,63.09
2023-05-12T10:41:36.177Z,63.98
2023-05-12T10:44:03.763Z,62.40
2023-05-12T10:46:31.644Z,57.84
2023-05-12T10:49:00.954Z,54.43
2023-05-12T10:51:30.338Z,55.98
2023-05-12T10:53:59.356Z,55.31
2023-05-12T10:56:30.516Z,54.29
2023-05-12T10:59:17.387Z,56.20
2023-05-12T11:02:03.109Z,55.02
2023-05-12T11:04:41.647Z,53.11
2023-05-12T11:07:11.712Z,54.11
2023-05-12T11:09:53.094Z,54.56
2023-05-12T11:12:27.631Z,56.22
2023-05-12T11:14:55.588Z,51.87
2023-05-12T11:17:23.340Z,50.75
2023-05-12T11:19:52.453Z,49.46
2023-05-12T11:22:22.460Z,48.71
2023-05-12T11:24:52.381Z,48.80
2023-05-12T11:27:22.475Z,50.06
2023-05-12T11:29:58.332Z,48.76
2023-05-12T11:32:26.260Z,48.29
2023-05-12T11:34:54.103Z,46.30
2023-05-12T11:37:21.854Z,47.62
2023-05-12T11:39:50.028Z,46.56
2023-05-12T11:42:19.704Z,45.81
2023-05-12T11:44:50.096Z,43.68
2023-05-12T11:47:22.138Z,41.50
2023-05-12T11:49:53.116Z,43.07
2023-05-12T11:52:24.891Z,44.02
2023-05-12T11:54:54.075Z,44.60
2023-05-12T11:57:28.285Z,45.14
2023-05-12T12:00:01.787Z,41.82
2023-05-12T12:02:32.613Z,41.94
2023-05-12T12:05:00.767Z,41.89
2023-05-12T12:07:32.422Z,41.99
2023-05-12T12:10:03.432Z,42.26
2023-05-12T12:12:31.267Z,42.33
2023-05-12T12:15:00.257Z,43.10
2023-05-12T12:17:30.959Z,44.07
2023-05-12T12:20:00.260Z,44.68
2023-05-12T12:22:32.500Z,45.38
2023-05-12T12:25:01.636Z,45.12
2023-05-12T12:27:29.495Z,45.19
2023-05-12T12:29:57.701Z,45.91
2023-05-12T12:32:26.039Z,44.61
2023-05-12T12:34:53.733Z,44.67
2023-05-12T12:37:22.714Z,44.40
2023-05-12T12:39:50.353Z,43.83
2023-05-12T12:42:18.106Z,42.02
2023-05-12T12:44:50.150Z,42.88
2023-05-12T12:47:19.035Z,42.34
2023-05-12T12:49:46.812Z,41.68
2023-05-12T12:52:14.708Z,43.16
2023-05-12T12:54:43.781Z,42.97
2023-05-12T12:57:11.404Z,42.69
2023-05-12T12:59:39.075Z,43.42
2023-05-12T13:02:07.069Z,42.35
2023-05-12T13:04:34.802Z,41.03
2023-05-12T13:07:02.533Z,42.13
2023-05-12T13:09:30.567Z,40.73
2023-05-12T13:12:00.927Z,40.27
2023-05-12T13:14:28.856Z,38.90
2023-05-12T13:16:56.551Z,35.53
2023-05-12T13:19:24.226Z,36.03
2023-05-12T13:21:52.136Z,36.17
2023-05-12T13:24:19.817Z,36.79
2023-05-12T13:26:47.497Z,36.72
2023-05-12T13:29:16.623Z,37.16
2023-05-12T13:31:45.760Z,38.01
2023-05-12T13:34:13.957Z,37.12
2023-05-12T13:36:41.943Z,36.20
2023-05-12T13:39:10.118Z,35.32
2023-05-12T13:41:37.917Z,35.20
2023-05-12T13:44:06.240Z,34.85
2023-05-12T13:46:35.572Z,34.75
2023-05-12T13:49:03.580Z,33.83
2023-05-12T13:51:32.380Z,32.75
2023-05-12T13:54:00.222Z,33.12
2023-05-12T13:56:27.809Z,33.94
2023-05-12T13:58:55.583Z,34.63
2023-05-12T14:01:23.306Z,33.20
2023-05-12T14:03:52.540Z,33.97
2023-05-12T14:06:20.209Z,33.09
2023-05-12T14:08:48.263Z,35.25
2023-05-12T14:11:16.736Z,34.02
2023-05-12T14:13:44.462Z,34.84
2023-05-12T14:16:13.930Z,33.08
2023-05-12T14:18:43.356Z,31.97
2023-05-12T14:21:12.905Z,32.01
2023-05-12T14:23:40.506Z,32.34
2023-05-12T14:26:08.172Z,34.28
2023-05-12T14:28:36.020Z,32.15
2023-05-12T14:31:03.871Z,32.69
2023-05-12T14:33:32.266Z,32.80
2023-05-12T14:36:07.168Z,30.85
2023-05-12T14:38:37.862Z,32.82
2023-05-12T14:41:08.078Z,31.58
2023-05-12T14:43:35.865Z,30.94
2023-05-12T14:46:04.383Z,31.12
2023-05-12T14:48:32.261Z,30.54
2023-05-12T14:51:00.296Z,30.52
2023-05-12T14:53:27.971Z,30.26
2023-05-12T14:55:56.955Z,30.10
2023-05-12T14:58:24.954Z,29.10
2023-05-12T15:00:54.307Z,29.89
2023-05-12T15:03:22.389Z,30.14
2023-05-12T15:08:21.577Z,31.38
2023-05-12T15:10:49.790Z,30.49
2023-05-12T15:13:20.373Z,30.13
2023-05-12T15:15:48.329Z,31.95
2023-05-12T15:18:16.283Z,31.57
2023-05-12T15:20:43.950Z,30.63
2023-05-12T15:23:11.562Z,31.10
2023-05-12T15:25:40.158Z,30.61
2023-05-12T15:28:08.310Z,30.72
2023-05-12T15:30:37.322Z,31.67
2023-05-12T15:33:05.899Z,32.16
2023-05-12T15:35:33.678Z,31.87
2023-05-12T15:38:01.551Z,32.23
2023-05-12T15:40:30.608Z,32.47
2023-05-12T15:42:58.319Z,32.40
2023-05-12T15:45:26.063Z,32.18
2023-05-12T15:47:56.203Z,33.20
2023-05-12T15:50:24.560Z,32.98
2023-05-12T15:52:52.689Z,32.90
2023-05-12T15:55:21.510Z,33.21
2023-05-12T15:57:50.220Z,33.54
2023-05-12T16:00:19.394Z,33.64
2023-05-12T16:02:47.776Z,33.59
2023-05-12T16:05:17.188Z,33.94
2023-05-12T16:07:44.839Z,32.32
2023-05-12T16:10:12.476Z,32.81
2023-05-12T16:12:40.822Z,33.60
2023-05-12T16:15:09.559Z,33.54
2023-05-12T16:17:37.190Z,32.53
2023-05-12T16:20:05.749Z,33.74
2023-05-12T16:22:35.202Z,33.96
2023-05-12T16:25:02.768Z,34.23
2023-05-12T16:27:31.969Z,34.82
2023-05-12T16:29:59.704Z,32.89
2023-05-12T16:32:27.454Z,33.50
2023-05-12T16:34:56.023Z,32.80
2023-05-12T16:37:23.889Z,33.53
2023-05-12T16:39:53.050Z,33.86
2023-05-12T16:42:21.036Z,34.34
2023-05-12T16:44:48.775Z,33.67
2023-05-12T16:47:16.470Z,34.08
2023-05-12T16:49:44.402Z,34.23
2023-05-12T16:52:12.629Z,34.59
2023-05-12T16:54:40.368Z,33.73
2023-05-12T16:57:09.396Z,34.68
2023-05-12T16:59:38.631Z,33.98
2023-05-12T17:02:08.444Z,35.75
2023-05-12T17:04:36.508Z,34.75
2023-05-12T17:07:04.217Z,35.12
2023-05-12T17:09:31.939Z,34.52
2023-05-12T17:11:59.696Z,33.90
2023-05-12T17:14:28.587Z,34.16
2023-05-12T17:16:56.504Z,35.05
2023-05-12T17:19:24.793Z,34.01
2023-05-12T17:21:52.816Z,35.31
2023-05-12T17:24:20.740Z,34.81
2023-05-12T17:29:16.040Z,35.63
2023-05-12T17:31:45.138Z,35.50
2023-05-12T17:34:12.979Z,35.27
2023-05-12T17:36:40.923Z,34.95
2023-05-12T17:39:08.749Z,34.36
2023-05-12T17:41:36.561Z,35.06
2023-05-12T17:44:04.878Z,36.36
2023-05-12T17:46:32.784Z,35.81
2023-05-12T17:49:01.792Z,36.53
2023-05-12T17:51:30.675Z,36.80
2023-05-12T17:53:58.435Z,36.40
2023-05-12T17:56:26.478Z,37.42
2023-05-12T17:58:54.498Z,35.74
2023-05-12T18:01:22.373Z,36.88
2023-05-12T18:03:50.100Z,37.19
2023-05-12T18:06:19.058Z,36.21
2023-05-12T18:08:47.189Z,35.51
2023-05-12T18:11:15.142Z,35.70
2023-05-12T18:13:42.912Z,35.76
2023-05-12T18:16:21.272Z,37.07
2023-05-12T18:18:55.914Z,37.27
2023-05-12T18:21:25.237Z,37.69
2023-05-12T18:23:52.891Z,38.32
2023-05-12T18:26:20.868Z,37.86
2023-05-12T18:28:48.844Z,37.15
2023-05-12T18:31:19.541Z,37.88
2023-05-12T18:33:48.511Z,37.72
2023-05-12T18:36:16.937Z,37.98
2023-05-12T18:38:46.573Z,38.37
2023-05-12T18:41:14.208Z,37.75
2023-05-12T18:43:44.179Z,38.20
2023-05-12T18:46:12.439Z,38.51
2023-05-12T18:48:40.337Z,38.99
2023-05-12T18:51:08.142Z,39.01
2023-05-12T18:53:35.957Z,38.71
2023-05-12T18:56:05.022Z,38.94
2023-05-12T18:58:32.836Z,39.10
2023-05-12T19:01:00.637Z,39.30
2023-05-12T19:03:28.758Z,39.72
2023-05-12T19:05:56.691Z,39.79
2023-05-12T19:08:24.463Z,39.85
2023-05-12T19:10:52.335Z,40.08
2023-05-12T19:13:21.640Z,40.00
2023-05-12T19:15:49.571Z,40.37
2023-05-12T19:18:17.655Z,40.03
2023-05-12T19:20:45.573Z,40.39
2023-05-12T19:23:13.495Z,40.66
2023-05-12T19:25:42.928Z,40.88
2023-05-12T19:28:12.147Z,40.69
2023-05-12T19:30:41.325Z,41.04
2023-05-12T19:33:09.206Z,40.47
2023-05-12T19:35:37.372Z,41.03
2023-05-12T19:38:05.238Z,41.34
2023-05-12T19:40:33.424Z,41.30
2023-05-12T19:43:01.984Z,41.96
2023-05-12T19:45:30.350Z,41.47
2023-05-12T19:48:03.051Z,42.37
2023-05-12T19:50:30.911Z,42.60
2023-05-12T19:52:59.122Z,42.43
2023-05-12T19:55:26.886Z,42.04
2023-05-12T19:57:54.742Z,42.53
2023-05-12T20:00:22.519Z,42.87
2023-05-12T20:02:50.879Z,42.70
2023-05-12T20:05:20.961Z,42.81
2023-05-12T20:07:49.543Z,42.27
2023-05-12T20:10:17.569Z,42.59
2023-05-12T20:12:45.322Z,42.60
2023-05-12T20:15:13.266Z,42.54
2023-05-12T20:17:41.102Z,42.68
2023-05-12T20:20:11.678Z,42.88
2023-05-12T20:22:41.014Z,42.76
2023-05-12T20:25:12.436Z,42.70
2023-05-12T20:27:40.133Z,42.75
2023-05-12T20:30:09.446Z,42.66
2023-05-12T20:32:37.593Z,43.01
2023-05-12T20:35:06.540Z,42.87
2023-05-12T20:37:34.431Z,43.35
2023-05-12T20:40:05.491Z,43.22
2023-05-12T20:42:33.313Z,43.43
2023-05-12T20:45:01.259Z,43.30
2023-05-12T20:47:30.803Z,43.84
2023-05-12T20:50:00.598Z,43.81
2023-05-12T20:52:29.018Z,44.06
2023-05-12T20:54:58.710Z,44.16
2023-05-12T20:57:28.015Z,44.35
2023-05-12T20:59:56.976Z,44.92
2023-05-12T21:02:24.960Z,45.07
2023-05-12T21:04:52.835Z,45.49
2023-05-12T21:07:21.137Z,45.64
2023-05-12T21:09:48.815Z,45.39
2023-05-12T21:12:16.445Z,45.81
2023-05-12T21:14:46.252Z,45.54
2023-05-12T21:17:13.964Z,45.90
2023-05-12T21:19:41.885Z,45.93
2023-05-12T21:22:10.367Z,46.10
2023-05-12T21:24:39.364Z,45.62
2023-05-12T21:27:08.044Z,46.14
2023-05-12T21:29:36.396Z,46.34
2023-05-12T21:32:06.093Z,46.16
2023-05-12T21:34:35.948Z,46.01
2023-05-12T21:37:03.840Z,46.72
2023-05-12T21:39:31.446Z,46.57
2023-05-12T21:41:59.066Z,46.53
2023-05-12T21:44:26.762Z,46.94
2023-05-12T21:46:54.462Z,46.77
2023-05-12T21:49:23.481Z,46.71
2023-05-12T21:51:51.651Z,46.65
2023-05-12T21:54:19.356Z,46.83
2023-05-12T21:56:47.075Z,46.90
2023-05-12T21:59:14.716Z,47.30
2023-05-12T22:01:42.844Z,47.40
2023-05-12T22:04:11.079Z,46.96
2023-05-12T22:06:40.203Z,47.91
2023-05-12T22:09:07.868Z,47.96
2023-05-12T22:11:35.606Z,48.10
2023-05-12T22:14:04.185Z,48.19
2023-05-12T22:16:41.299Z,47.55
2023-05-12T22:19:10.068Z,48.07
2023-05-12T22:21:38.027Z,47.98
2023-05-12T22:24:07.818Z,48.53
2023-05-12T22:26:35.622Z,48.14
2023-05-12T22:29:03.271Z,48.67
2023-05-12T22:31:30.968Z,48.80
2023-05-12T22:33:58.628Z,49.39
2023-05-12T22:36:26.440Z,49.33
2023-05-12T22:38:54.032Z,49.23
2023-05-12T22:41:23.126Z,49.02
2023-05-12T22:43:50.809Z,49.51
2023-05-12T22:46:18.684Z,49.26
2023-05-12T22:48:46.480Z,49.67
2023-05-12T22:51:14.260Z,50.70
2023-05-12T22:53:42.217Z,50.38
2023-05-12T22:56:09.961Z,50.31
2023-05-12T22:58:39.193Z,50.30
2023-05-12T23:01:07.323Z,50.55
2023-05-12T23:03:35.150Z,50.64
2023-05-12T23:06:03.139Z,50.98
2023-05-12T23:08:30.808Z,50.91
2023-05-12T23:10:58.451Z,51.74
2023-05-12T23:13:26.214Z,51.99
2023-05-12T23:15:55.402Z,52.63
2023-05-12T23:18:23.268Z,53.16
2023-05-12T23:20:50.899Z,53.63
2023-05-12T23:23:18.630Z,53.51
2023-05-12T23:25:47.689Z,53.97
2023-05-12T23:28:15.370Z,54.51
2023-05-12T23:30:43.028Z,54.91
2023-05-12T23:33:12.139Z,54.95
2023-05-12T23:35:39.997Z,54.97
2023-05-12T23:38:07.905Z,55.53
2023-05-12T23:40:38.912Z,55.94
2023-05-12T23:43:06.793Z,56.28
2023-05-12T23:45:34.902Z,56.46
2023-05-12T23:48:02.686Z,56.84
2023-05-12T23:50:31.774Z,56.94
2023-05-12T23:52:59.382Z,57.32
2023-05-12T23:55:27.039Z,57.54
2023-05-12T23:57:54.607Z,57.70
